Time;durP1;ratioP1;P1;durP2;ratioP2;P2;SDS_P1;SDS_P2;PMS_P1;PMS_P2;Temp;Humidity;BMP_temperature;BMP_pressure;BME280_temperature;BME280_humidity;BME280_pressure;Samples;Min_cycle;Max_cycle;Signal;HPM_P1;HPM_P2
2023/12/16 00:01:02;;;;;;;;;;;18.20;69.00;;;;;;7318679;19;9421;-70
2023/12/16 00:03:31;;;;;;;;;;;18.20;69.00;;;;;;7320290;19;10445;-71
2023/12/16 00:06:01;;;;;;;;;;;18.10;68.90;;;;;;7319017;19;9491;-70
2023/12/16 00:08:30;;;;;;;;;;;18.10;68.90;;;;;;7319131;19;9188;-70
2023/12/16 00:10:59;;;;;;;;;;;18.10;68.90;;;;;;7318774;19;9482;-71
2023/12/16 00:13:28;;;;;;;;;;;18.10;68.90;;;;;;7318374;19;10529;-71
2023/12/16 00:16:19;;;;;;;;;;;18.20;69.00;;;;;;7318531;19;9363;-71
2023/12/16 00:18:48;;;;;;;;;;;18.10;68.90;;;;;;7317560;19;9585;-71
2023/12/16 00:21:17;;;;;;;;;;;18.10;68.90;;;;;;7320076;19;9426;-71
2023/12/16 00:23:46;;;;;;;;;;;18.10;68.90;;;;;;7318840;19;10688;-71
2023/12/16 00:26:15;;;;;;;;;;;18.10;68.80;;;;;;7319878;19;9468;-71
2023/12/16 00:28:44;;;;;;;;;;;18.10;68.90;;;;;;7318882;19;9297;-71
2023/12/16 00:31:35;;;;;;;;;;;18.10;69.10;;;;;;7317444;19;9356;-71
2023/12/16 00:34:05;;;;;;;;;;;18.10;68.80;;;;;;7318116;19;9240;-71
2023/12/16 00:36:34;;;;;;;;;;;18.10;68.80;;;;;;7317258;19;9236;-70
2023/12/16 00:39:03;;;;;;;;;;;18.10;68.80;;;;;;7318551;19;9180;-70
2023/12/16 00:41:32;;;;;;;;;;;18.10;68.80;;;;;;7317403;19;9431;-71
2023/12/16 00:44:00;;;;;;;;;;;18.10;68.80;;;;;;7319515;19;9135;-71
2023/12/16 00:46:31;;;;;;;;;;;18.10;68.80;;;;;;7318316;19;9248;-71
2023/12/16 00:49:02;;;;;;;;;;;18.10;68.80;;;;;;7318182;19;12316;-72
2023/12/16 00:51:31;;;;;;;;;;;18.10;69.30;;;;;;7317876;19;9556;-71
2023/12/16 00:54:20;;;;;;;;;;;18.10;68.80;;;;;;7314824;19;9561;-71
2023/12/16 00:56:49;;;;;;;;;;;18.10;68.80;;;;;;7318652;19;9196;-71
2023/12/16 00:59:21;;;;;;;;;;;18.10;68.70;;;;;;7314968;19;9545;-72
2023/12/16 01:01:50;;;;;;;;;;;18.10;68.70;;;;;;7318166;19;9253;-71
2023/12/16 01:04:41;;;;;;;;;;;18.10;68.60;;;;;;7316064;19;9215;-69
2023/12/16 01:07:10;;;;;;;;;;;18.00;68.60;;;;;;7316599;19;10358;-68
2023/12/16 01:09:39;;;;;;;;;;;18.10;68.60;;;;;;7317413;19;9338;-70
2023/12/16 01:12:09;;;;;;;;;;;18.10;68.60;;;;;;7317315;19;9146;-70
2023/12/16 01:14:58;;;;;;;;;;;18.10;68.70;;;;;;7315711;19;9295;-70
2023/12/16 01:17:27;;;;;;;;;;;18.00;68.60;;;;;;7317498;19;9303;-71
2023/12/16 01:19:58;;;;;;;;;;;18.00;68.60;;;;;;7316829;19;9477;-71
2023/12/16 01:22:27;;;;;;;;;;;18.00;68.60;;;;;;7317000;19;9468;-71
2023/12/16 01:24:56;;;;;;;;;;;18.00;68.50;;;;;;7317366;19;9520;-71
2023/12/16 01:27:26;;;;;;;;;;;18.00;68.50;;;;;;7313980;19;9250;-70
2023/12/16 01:29:55;;;;;;;;;;;18.00;68.50;;;;;;7316872;19;9451;-70
2023/12/16 01:32:24;;;;;;;;;;;18.00;69.10;;;;;;7311308;19;9409;-71
2023/12/16 01:35:15;;;;;;;;;;;18.00;68.60;;;;;;7313909;19;9258;-71
2023/12/16 01:37:44;;;;;;;;;;;18.00;68.50;;;;;;7314590;19;9483;-71
2023/12/16 01:40:14;;;;;;;;;;;18.00;68.50;;;;;;7315647;19;9192;-71
2023/12/16 01:42:43;;;;;;;;;;;18.00;68.50;;;;;;7315593;19;9413;-71
2023/12/16 01:45:12;;;;;;;;;;;18.00;68.50;;;;;;7316019;19;9610;-70
2023/12/16 01:47:43;;;;;;;;;;;18.00;68.50;;;;;;7320929;19;9148;-71
2023/12/16 01:50:15;;;;;;;;;;;18.00;68.40;;;;;;7322542;19;9622;-71
2023/12/16 01:52:45;;;;;;;;;;;18.00;68.40;;;;;;7322559;19;9609;-71
2023/12/16 01:55:15;;;;;;;;;;;17.90;68.40;;;;;;7321723;19;9348;-71
2023/12/16 01:57:46;;;;;;;;;;;18.00;68.40;;;;;;7321877;19;9451;-71
2023/12/16 02:00:16;;;;;;;;;;;18.00;68.40;;;;;;7318092;19;9471;-71
2023/12/16 02:02:45;;;;;;;;;;;18.00;68.50;;;;;;7321181;19;10358;-71
2023/12/16 02:05:17;;;;;;;;;;;17.90;68.30;;;;;;7321907;19;9519;-71
2023/12/16 02:07:46;;;;;;;;;;;17.90;68.40;;;;;;7320767;19;9149;-70
2023/12/16 02:10:16;;;;;;;;;;;17.90;68.40;;;;;;7321040;19;9180;-71
2023/12/16 02:12:45;;;;;;;;;;;17.90;68.40;;;;;;7321968;19;9300;-70
2023/12/16 02:15:14;;;;;;;;;;;17.90;68.40;;;;;;7318898;19;9388;-71
2023/12/16 02:17:43;;;;;;;;;;;17.90;68.30;;;;;;7320797;19;9226;-71
2023/12/16 02:20:16;;;;;;;;;;;18.00;68.40;;;;;;7320915;19;9456;-70
2023/12/16 02:22:49;;;;;;;;;;;17.90;68.30;;;;;;7321149;19;9278;-71
2023/12/16 02:25:42;;;;;;;;;;;17.90;68.30;;;;;;7318220;19;9440;-70
2023/12/16 02:28:11;;;;;;;;;;;17.90;68.30;;;;;;7320213;19;10395;-69
2023/12/16 02:30:40;;;;;;;;;;;17.90;68.30;;;;;;7321233;19;10724;-69
2023/12/16 02:33:09;;;;;;;;;;;17.90;68.30;;;;;;7320514;19;9487;-69
2023/12/16 02:35:38;;;;;;;;;;;17.90;68.30;;;;;;7320734;19;9544;-69
2023/12/16 02:38:07;;;;;;;;;;;17.90;68.20;;;;;;7320135;19;9188;-71
2023/12/16 02:40:42;;;;;;;;;;;17.90;68.20;;;;;;7320758;19;9465;-71
2023/12/16 02:43:13;;;;;;;;;;;17.90;68.30;;;;;;7320548;19;10422;-70
2023/12/16 02:45:42;;;;;;;;;;;17.90;68.90;;;;;;7321095;19;9731;-69
2023/12/16 02:48:12;;;;;;;;;;;17.90;68.20;;;;;;7321203;19;9450;-70
2023/12/16 02:50:41;;;;;;;;;;;17.90;68.20;;;;;;7319264;19;9704;-70
2023/12/16 02:53:09;;;;;;;;;;;17.90;68.20;;;;;;7321138;19;9457;-70
2023/12/16 02:55:38;;;;;;;;;;;17.90;68.20;;;;;;7320225;19;9479;-71
2023/12/16 02:58:07;;;;;;;;;;;17.90;68.20;;;;;;7320210;19;9175;-71
2023/12/16 03:00:39;;;;;;;;;;;17.90;68.20;;;;;;7319355;19;10697;-71
2023/12/16 03:03:08;;;;;;;;;;;17.90;68.20;;;;;;7321479;19;9453;-70
2023/12/16 03:05:37;;;;;;;;;;;17.90;68.20;;;;;;7319378;19;9340;-71
2023/12/16 03:08:06;;;;;;;;;;;17.90;68.20;;;;;;7319927;19;9590;-71
2023/12/16 03:10:35;;;;;;;;;;;17.80;68.10;;;;;;7318838;19;9167;-70
2023/12/16 03:13:04;;;;;;;;;;;17.90;68.10;;;;;;7320251;19;9646;-71
2023/12/16 03:15:33;;;;;;;;;;;17.90;68.20;;;;;;7319716;19;9230;-70
2023/12/16 03:18:04;;;;;;;;;;;17.90;68.20;;;;;;7319617;19;9517;-71
2023/12/16 03:20:33;;;;;;;;;;;17.90;68.20;;;;;;7318932;19;9332;-71
2023/12/16 03:23:02;;;;;;;;;;;17.80;68.20;;;;;;7318817;19;10513;-71
2023/12/16 03:25:31;;;;;;;;;;;17.80;68.20;;;;;;7317283;19;9782;-71
2023/12/16 03:28:00;;;;;;;;;;;17.80;68.20;;;;;;7320502;19;9469;-71
2023/12/16 03:30:29;;;;;;;;;;;17.80;68.10;;;;;;7321020;19;9106;-71
2023/12/16 03:32:58;;;;;;;;;;;17.80;68.10;;;;;;7319934;19;9292;-71
2023/12/16 03:35:30;;;;;;;;;;;17.90;68.20;;;;;;7320462;19;9553;-70
2023/12/16 03:38:00;;;;;;;;;;;17.80;68.10;;;;;;7319360;19;9458;-71
2023/12/16 03:40:29;;;;;;;;;;;17.80;68.40;;;;;;7320650;19;9191;-71
2023/12/16 03:42:58;;;;;;;;;;;17.80;68.00;;;;;;7318800;19;9457;-71
2023/12/16 03:45:27;;;;;;;;;;;17.80;68.00;;;;;;7320596;19;9611;-71
2023/12/16 03:47:56;;;;;;;;;;;17.80;68.00;;;;;;7319359;19;9411;-71
2023/12/16 03:50:26;;;;;;;;;;;17.80;68.00;;;;;;7319901;19;9721;-71
2023/12/16 03:52:58;;;;;;;;;;;17.80;67.90;;;;;;7319900;19;9188;-71
2023/12/16 03:55:27;;;;;;;;;;;17.80;68.00;;;;;;7319514;19;9493;-71
2023/12/16 03:57:56;;;;;;;;;;;17.80;68.00;;;;;;7319626;19;9453;-71
2023/12/16 04:00:25;;;;;;;;;;;17.80;67.90;;;;;;7318029;19;9427;-71
2023/12/16 04:02:54;;;;;;;;;;;17.80;68.00;;;;;;7319887;19;10390;-71
2023/12/16 04:05:24;;;;;;;;;;;17.80;68.00;;;;;;7318200;19;9334;-71
2023/12/16 04:07:53;;;;;;;;;;;17.80;68.00;;;;;;7319928;19;9413;-71
2023/12/16 04:10:25;;;;;;;;;;;17.80;68.00;;;;;;7316308;19;9252;-70
2023/12/16 04:12:54;;;;;;;;;;;17.80;68.00;;;;;;7319749;19;9279;-71
2023/12/16 04:15:23;;;;;;;;;;;17.80;67.90;;;;;;7316884;19;9135;-71
2023/12/16 04:17:52;;;;;;;;;;;17.70;67.80;;;;;;7318593;19;9124;-71
2023/12/16 04:20:21;;;;;;;;;;;17.80;67.90;;;;;;7318694;19;9328;-71
2023/12/16 04:22:50;;;;;;;;;;;17.70;67.90;;;;;;7318988;19;9645;-71
2023/12/16 04:25:19;;;;;;;;;;;17.70;67.80;;;;;;7318489;19;9252;-71
2023/12/16 04:27:51;;;;;;;;;;;17.70;67.90;;;;;;7318243;19;10704;-71
2023/12/16 04:30:20;;;;;;;;;;;17.70;67.80;;;;;;7318772;19;9563;-71
2023/12/16 04:32:49;;;;;;;;;;;17.70;67.80;;;;;;7318828;19;9662;-70
2023/12/16 04:35:37;;;;;;;;;;;17.70;67.80;;;;;;7317609;19;9569;-71
2023/12/16 04:38:06;;;;;;;;;;;17.70;67.90;;;;;;7318315;19;9340;-71
2023/12/16 04:40:35;;;;;;;;;;;17.70;67.80;;;;;;7319205;19;10827;-71
2023/12/16 04:43:07;;;;;;;;;;;17.70;67.80;;;;;;7318449;19;9205;-71
2023/12/16 04:45:56;;;;;;;;;;;17.70;67.90;;;;;;7315753;19;9479;-71
2023/12/16 04:48:25;;;;;;;;;;;17.70;67.90;;;;;;7319688;19;9436;-71
2023/12/16 04:50:54;;;;;;;;;;;17.70;67.80;;;;;;7316611;19;9417;-71
2023/12/16 04:53:23;;;;;;;;;;;17.70;67.80;;;;;;7319425;19;9426;-71
2023/12/16 04:55:52;;;;;;;;;;;17.70;67.80;;;;;;7316677;19;9324;-71
2023/12/16 04:58:24;;;;;;;;;;;17.70;67.80;;;;;;7318134;19;9410;-71
2023/12/16 05:00:53;;;;;;;;;;;17.70;67.80;;;;;;7317407;19;10482;-70
2023/12/16 05:03:22;;;;;;;;;;;17.70;67.70;;;;;;7318420;19;9453;-71
2023/12/16 05:05:51;;;;;;;;;;;17.70;67.80;;;;;;7316652;19;9545;-70
2023/12/16 05:08:22;;;;;;;;;;;17.60;67.70;;;;;;7317719;19;9449;-71
2023/12/16 05:11:11;;;;;;;;;;;17.60;67.70;;;;;;7316582;19;9588;-70
2023/12/16 05:13:43;;;;;;;;;;;17.70;67.70;;;;;;7316928;19;9484;-71
2023/12/16 05:16:12;;;;;;;;;;;17.70;67.70;;;;;;7317417;19;9458;-71
2023/12/16 05:18:40;;;;;;;;;;;17.60;67.70;;;;;;7316190;19;10595;-71
2023/12/16 05:21:29;;;;;;;;;;;17.70;67.70;;;;;;7320010;19;9602;-71
2023/12/16 05:23:59;;;;;;;;;;;17.70;67.70;;;;;;7322712;19;9457;-71
2023/12/16 05:26:28;;;;;;;;;;;17.70;67.70;;;;;;7322295;19;9697;-71
2023/12/16 05:28:59;;;;;;;;;;;17.70;67.70;;;;;;7323947;19;9584;-71
2023/12/16 05:31:48;;;;;;;;;;;17.70;67.60;;;;;;7321601;19;9283;-71
2023/12/16 05:34:17;;;;;;;;;;;17.70;67.60;;;;;;7324376;19;9663;-71
2023/12/16 05:37:06;;;;;;;;;;;17.70;67.60;;;;;;7322686;19;9227;-71
2023/12/16 05:39:35;;;;;;;;;;;17.60;67.60;;;;;;7323395;19;9293;-71
2023/12/16 05:42:04;;;;;;;;;;;17.60;67.50;;;;;;7323263;19;9261;-71
2023/12/16 05:44:36;;;;;;;;;;;17.60;67.50;;;;;;7322693;19;9649;-71
2023/12/16 05:47:05;;;;;;;;;;;17.60;67.70;;;;;;7323991;19;9152;-71
2023/12/16 05:49:34;;;;;;;;;;;17.60;67.50;;;;;;7322445;19;10700;-71
2023/12/16 05:52:04;;;;;;;;;;;17.60;67.50;;;;;;7323894;19;9248;-71
2023/12/16 05:54:33;;;;;;;;;;;17.60;67.50;;;;;;7323636;19;9319;-71
2023/12/16 05:57:02;;;;;;;;;;;17.60;67.60;;;;;;7323397;19;9682;-71
2023/12/16 05:59:31;;;;;;;;;;;17.60;67.50;;;;;;7321571;19;9622;-71
2023/12/16 06:02:03;;;;;;;;;;;17.60;67.50;;;;;;7323625;19;9541;-71
2023/12/16 06:04:32;;;;;;;;;;;17.60;67.50;;;;;;7323246;19;9469;-71
2023/12/16 06:07:01;;;;;;;;;;;17.60;67.50;;;;;;7321954;19;9493;-71
2023/12/16 06:09:30;;;;;;;;;;;17.60;67.50;;;;;;7323656;19;9417;-71
2023/12/16 06:11:58;;;;;;;;;;;17.60;67.60;;;;;;7321732;19;9259;-71
2023/12/16 06:14:27;;;;;;;;;;;17.50;67.50;;;;;;7321914;19;9478;-71
2023/12/16 06:16:56;;;;;;;;;;;17.60;67.60;;;;;;7321204;19;10656;-71
2023/12/16 06:19:28;;;;;;;;;;;17.60;67.50;;;;;;7323005;19;9444;-72
2023/12/16 06:21:57;;;;;;;;;;;17.60;67.40;;;;;;7321686;19;9567;-71
2023/12/16 06:24:46;;;;;;;;;;;17.60;67.50;;;;;;7321302;19;9461;-71
2023/12/16 06:27:15;;;;;;;;;;;17.60;67.50;;;;;;7322554;19;9471;-71
2023/12/16 06:30:04;;;;;;;;;;;17.60;67.50;;;;;;7320699;19;10459;-71
2023/12/16 06:32:33;;;;;;;;;;;17.60;67.40;;;;;;7319851;19;9494;-71
2023/12/16 06:35:05;;;;;;;;;;;17.60;67.40;;;;;;7321510;19;9706;-71
2023/12/16 06:37:33;;;;;;;;;;;17.60;67.40;;;;;;7321231;19;9330;-71
2023/12/16 06:40:03;;;;;;;;;;;17.60;67.40;;;;;;7321719;19;9474;-71
2023/12/16 06:42:32;;;;;;;;;;;17.50;67.30;;;;;;7321735;19;9514;-71
2023/12/16 06:45:01;;;;;;;;;;;17.60;67.40;;;;;;7322526;19;9445;-71
2023/12/16 06:47:29;;;;;;;;;;;17.60;67.40;;;;;;7321372;19;9555;-71
2023/12/16 06:49:58;;;;;;;;;;;17.60;67.30;;;;;;7320716;19;9426;-71
2023/12/16 06:52:31;;;;;;;;;;;17.60;67.90;;;;;;7320212;19;9316;-71
2023/12/16 06:55:00;;;;;;;;;;;17.50;67.40;;;;;;7322372;19;9200;-71
2023/12/16 06:57:29;;;;;;;;;;;17.50;67.30;;;;;;7320427;19;9461;-71
2023/12/16 06:59:58;;;;;;;;;;;17.50;67.30;;;;;;7322187;19;9633;-71
2023/12/16 07:02:27;;;;;;;;;;;17.50;67.20;;;;;;7320773;19;10624;-71
2023/12/16 07:05:16;;;;;;;;;;;17.50;67.30;;;;;;7318911;19;9499;-71
2023/12/16 07:07:48;;;;;;;;;;;17.50;67.90;;;;;;7320227;19;9373;-71
2023/12/16 07:10:17;;;;;;;;;;;17.50;67.40;;;;;;7320696;19;9617;-69
2023/12/16 07:12:46;;;;;;;;;;;17.50;67.30;;;;;;7321691;19;10576;-70
2023/12/16 07:15:15;;;;;;;;;;;17.50;67.30;;;;;;7320563;19;10483;-70
2023/12/16 07:17:44;;;;;;;;;;;17.50;67.30;;;;;;7320898;19;9573;-71
2023/12/16 07:20:33;;;;;;;;;;;17.50;67.30;;;;;;7318876;19;9018;-70
2023/12/16 07:23:05;;;;;;;;;;;17.50;67.20;;;;;;7319044;19;9119;-71
2023/12/16 07:25:34;;;;;;;;;;;17.50;67.20;;;;;;7320165;19;9258;-71
2023/12/16 07:28:04;;;;;;;;;;;17.50;67.30;;;;;;7319753;19;9536;-71
2023/12/16 07:30:32;;;;;;;;;;;17.50;67.20;;;;;;7319052;19;9461;-71
2023/12/16 07:33:01;;;;;;;;;;;17.40;67.10;;;;;;7319767;19;9340;-71
2023/12/16 07:35:30;;;;;;;;;;;17.40;67.10;;;;;;7319920;19;9502;-71
2023/12/16 07:37:59;;;;;;;;;;;17.50;67.20;;;;;;7318519;19;9465;-70
2023/12/16 07:40:31;;;;;;;;;;;17.40;67.30;;;;;;7319233;19;9506;-71
2023/12/16 07:43:00;;;;;;;;;;;17.40;67.20;;;;;;7318989;19;10370;-70
2023/12/16 07:45:29;;;;;;;;;;;17.40;67.20;;;;;;7317305;19;9666;-70
2023/12/16 07:48:18;;;;;;;;;;;17.50;67.20;;;;;;7318773;19;9509;-70
2023/12/16 07:50:47;;;;;;;;;;;17.50;67.20;;;;;;7319032;19;10211;-70
2023/12/16 07:53:17;;;;;;;;;;;17.50;67.20;;;;;;7320640;19;9332;-70
2023/12/16 07:55:48;;;;;;;;;;;17.50;67.10;;;;;;7318894;19;10451;-70
2023/12/16 07:58:17;;;;;;;;;;;17.50;67.20;;;;;;7318883;19;9459;-70
2023/12/16 08:00:46;;;;;;;;;;;17.40;67.10;;;;;;7318233;19;9643;-71
2023/12/16 08:03:15;;;;;;;;;;;17.50;67.10;;;;;;7319943;19;9469;-70
2023/12/16 08:05:44;;;;;;;;;;;17.40;67.10;;;;;;7318046;19;9411;-70
2023/12/16 08:08:13;;;;;;;;;;;17.40;67.20;;;;;;7318872;19;9488;-70
2023/12/16 08:10:42;;;;;;;;;;;17.40;67.20;;;;;;7318877;19;9598;-70
2023/12/16 08:13:14;;;;;;;;;;;17.40;67.20;;;;;;7317358;19;10584;-71
2023/12/16 08:15:43;;;;;;;;;;;17.40;67.20;;;;;;7316901;19;9270;-70
2023/12/16 08:18:12;;;;;;;;;;;17.40;67.20;;;;;;7318434;19;9243;-70
2023/12/16 08:20:41;;;;;;;;;;;17.40;67.10;;;;;;7318977;19;9228;-70
2023/12/16 08:23:10;;;;;;;;;;;17.40;67.20;;;;;;7319133;19;9574;-70
2023/12/16 08:25:39;;;;;;;;;;;17.40;67.10;;;;;;7318157;19;9471;-71
2023/12/16 08:28:08;;;;;;;;;;;17.40;67.10;;;;;;7317218;19;9287;-70
2023/12/16 08:30:40;;;;;;;;;;;17.40;67.20;;;;;;7317940;19;9360;-71
2023/12/16 08:33:09;;;;;;;;;;;17.40;67.20;;;;;;7317174;19;9497;-71
2023/12/16 08:35:39;;;;;;;;;;;17.40;67.20;;;;;;7318191;19;9466;-70
2023/12/16 08:38:08;;;;;;;;;;;17.40;67.10;;;;;;7317488;19;9590;-71
2023/12/16 08:40:36;;;;;;;;;;;17.40;67.20;;;;;;7319133;19;9491;-71
2023/12/16 08:43:06;;;;;;;;;;;17.40;67.20;;;;;;7317929;19;9238;-71
2023/12/16 08:45:35;;;;;;;;;;;17.40;67.20;;;;;;7318647;19;9205;-71
2023/12/16 08:48:07;;;;;;;;;;;17.40;67.20;;;;;;7316375;19;9369;-71
2023/12/16 08:50:36;;;;;;;;;;;17.40;67.20;;;;;;7318001;19;9492;-71
2023/12/16 08:53:05;;;;;;;;;;;17.40;67.20;;;;;;7317590;19;9490;-71
2023/12/16 08:55:34;;;;;;;;;;;17.40;67.80;;;;;;7318133;19;9428;-71
2023/12/16 08:58:03;;;;;;;;;;;17.40;67.20;;;;;;7324970;19;9244;-71
2023/12/16 09:00:32;;;;;;;;;;;17.40;67.10;;;;;;7323967;19;9593;-71
2023/12/16 09:03:01;;;;;;;;;;;17.40;67.20;;;;;;7324946;19;9442;-71
2023/12/16 09:05:34;;;;;;;;;;;17.40;67.20;;;;;;7321550;19;10362;-70
2023/12/16 09:08:03;;;;;;;;;;;17.40;67.20;;;;;;7325297;19;9505;-71
2023/12/16 09:10:32;;;;;;;;;;;17.40;67.80;;;;;;7323972;19;8974;-71
2023/12/16 09:13:01;;;;;;;;;;;17.40;67.20;;;;;;7323458;19;9522;-71
2023/12/16 09:15:30;;;;;;;;;;;17.40;67.20;;;;;;7323461;19;9182;-71
2023/12/16 09:17:59;;;;;;;;;;;17.40;67.20;;;;;;7323739;19;9573;-72
2023/12/16 09:20:28;;;;;;;;;;;17.40;67.20;;;;;;7324106;19;9808;-71
2023/12/16 09:23:01;;;;;;;;;;;17.40;67.20;;;;;;7322990;19;9394;-71
2023/12/16 09:25:30;;;;;;;;;;;17.40;67.20;;;;;;7322574;19;9430;-71
2023/12/16 09:27:59;;;;;;;;;;;17.40;67.20;;;;;;7322751;19;9615;-71
2023/12/16 09:30:28;;;;;;;;;;;17.40;67.20;;;;;;7321926;19;9422;-71
2023/12/16 09:32:57;;;;;;;;;;;17.40;67.20;;;;;;7322048;19;9446;-70
2023/12/16 09:35:26;;;;;;;;;;;17.40;67.20;;;;;;7322827;19;9458;-71
2023/12/16 09:37:55;;;;;;;;;;;17.40;67.20;;;;;;7322059;19;9570;-71
2023/12/16 09:40:27;;;;;;;;;;;17.40;67.20;;;;;;7322218;19;9375;-71
2023/12/16 09:43:07;;;;;;;;;;;17.40;67.20;;;;;;7320182;19;9293;-71
2023/12/16 09:45:36;;;;;;;;;;;17.30;67.10;;;;;;7322415;19;9288;-71
2023/12/16 09:48:05;;;;;;;;;;;17.30;67.20;;;;;;7322061;19;9775;-71
2023/12/16 09:50:35;;;;;;;;;;;17.40;67.20;;;;;;7322129;19;9273;-71
2023/12/16 09:53:05;;;;;;;;;;;17.40;67.20;;;;;;7320971;19;9202;-71
2023/12/16 09:55:37;;;;;;;;;;;17.40;67.20;;;;;;7319936;19;9646;-71
2023/12/16 09:58:07;;;;;;;;;;;17.30;67.20;;;;;;7323154;19;9267;-71
2023/12/16 10:00:47;;;;;;;;;;;17.30;67.20;;;;;;7320499;19;9745;-71
2023/12/16 10:03:17;;;;;;;;;;;17.30;67.20;;;;;;7322798;19;9517;-71
2023/12/16 10:05:48;;;;;;;;;;;17.40;67.30;;;;;;7320755;19;9187;-71
2023/12/16 10:08:17;;;;;;;;;;;17.30;67.20;;;;;;7317775;19;9449;-72
2023/12/16 10:10:48;;;;;;;;;;;17.40;67.30;;;;;;7321372;19;9438;-71
2023/12/16 10:13:17;;;;;;;;;;;17.30;67.20;;;;;;7321082;19;9143;-71
2023/12/16 10:15:47;;;;;;;;;;;17.30;67.20;;;;;;7321285;19;9417;-71
2023/12/16 10:18:36;;;;;;;;;;;17.30;67.20;;;;;;7319913;19;9483;-71
2023/12/16 10:21:05;;;;;;;;;;;17.30;67.20;;;;;;7321794;19;10178;-71
2023/12/16 10:23:35;;;;;;;;;;;17.30;67.30;;;;;;7321081;19;9490;-71
2023/12/16 10:26:07;;;;;;;;;;;17.30;67.20;;;;;;7321996;19;9409;-71
2023/12/16 10:28:37;;;;;;;;;;;17.30;67.30;;;;;;7321882;19;9716;-71
2023/12/16 10:31:06;;;;;;;;;;;17.30;66.90;;;;;;7321347;19;9820;-71
2023/12/16 10:33:35;;;;;;;;;;;17.30;67.20;;;;;;7321256;19;9469;-71
2023/12/16 10:36:04;;;;;;;;;;;17.30;67.30;;;;;;7322135;19;9293;-71
2023/12/16 10:38:33;;;;;;;;;;;17.30;67.20;;;;;;7321425;19;9320;-71
2023/12/16 10:41:02;;;;;;;;;;;17.30;67.30;;;;;;7321788;19;10860;-71
2023/12/16 10:43:34;;;;;;;;;;;17.30;67.30;;;;;;7322752;19;9219;-71
2023/12/16 10:46:06;;;;;;;;;;;17.30;67.30;;;;;;7319318;19;9274;-71
2023/12/16 10:48:37;;;;;;;;;;;17.30;67.30;;;;;;7321424;19;8999;-71
2023/12/16 10:51:08;;;;;;;;;;;17.30;67.30;;;;;;7319929;19;9661;-71
2023/12/16 10:53:41;;;;;;;;;;;17.30;67.30;;;;;;7322795;19;9421;-71
2023/12/16 10:56:19;;;;;;;;;;;17.30;67.30;;;;;;7321138;19;9205;-71
2023/12/16 10:59:21;;;;;;;;;;;17.30;67.30;;;;;;7318511;19;9953;-71
2023/12/16 11:01:57;;;;;;;;;;;17.30;67.20;;;;;;7320087;19;10331;-71
2023/12/16 11:04:31;;;;;;;;;;;17.30;67.30;;;;;;7320165;19;9343;-71
2023/12/16 11:07:07;;;;;;;;;;;17.30;67.20;;;;;;7320455;19;9477;-71
2023/12/16 11:09:37;;;;;;;;;;;17.30;67.30;;;;;;7319135;19;9602;-71
2023/12/16 11:12:07;;;;;;;;;;;17.30;67.20;;;;;;7319778;19;9477;-71
2023/12/16 11:14:40;;;;;;;;;;;17.30;67.30;;;;;;7320273;19;9494;-71
2023/12/16 11:17:17;;;;;;;;;;;17.30;67.20;;;;;;7319853;19;11535;-71
2023/12/16 11:19:55;;;;;;;;;;;17.30;67.90;;;;;;7317245;19;10733;-71
2023/12/16 11:22:26;;;;;;;;;;;17.30;67.30;;;;;;7320152;19;10269;-71
2023/12/16 11:24:59;;;;;;;;;;;17.30;67.30;;;;;;7319641;19;9597;-71
2023/12/16 11:27:30;;;;;;;;;;;17.30;67.30;;;;;;7318799;19;11268;-71
2023/12/16 11:30:02;;;;;;;;;;;17.30;67.30;;;;;;7320132;19;9234;-71
2023/12/16 11:32:32;;;;;;;;;;;17.30;67.30;;;;;;7319425;19;9220;-71
2023/12/16 11:35:50;;;;;;;;;;;17.30;67.30;;;;;;7317219;19;9269;-71
2023/12/16 11:38:46;;;;;;;;;;;17.30;67.20;;;;;;7318902;19;9420;-71
2023/12/16 11:41:43;;;;;;;;;;;17.30;67.30;;;;;;7319177;19;9285;-71
2023/12/16 11:44:12;;;;;;;;;;;17.30;67.30;;;;;;7319835;19;9492;-71
2023/12/16 11:46:44;;;;;;;;;;;17.30;67.30;;;;;;7319470;19;9483;-71
2023/12/16 11:49:16;;;;;;;;;;;17.30;67.30;;;;;;7316980;19;10661;-71
2023/12/16 11:51:46;;;;;;;;;;;17.30;67.30;;;;;;7320249;19;9505;-71
2023/12/16 11:54:15;;;;;;;;;;;17.30;67.30;;;;;;7317554;19;9263;-71
2023/12/16 11:56:45;;;;;;;;;;;17.30;67.30;;;;;;7318602;19;9336;-71
2023/12/16 11:59:14;;;;;;;;;;;17.30;67.30;;;;;;7319247;19;9734;-71
2023/12/16 12:01:46;;;;;;;;;;;17.30;67.30;;;;;;7319379;19;9135;-71
2023/12/16 12:04:15;;;;;;;;;;;17.20;67.30;;;;;;7318784;19;9485;-71
2023/12/16 12:06:44;;;;;;;;;;;17.30;67.30;;;;;;7319354;19;9449;-71
2023/12/16 12:09:13;;;;;;;;;;;17.30;67.30;;;;;;7319313;19;9658;-71
2023/12/16 12:11:42;;;;;;;;;;;17.30;67.40;;;;;;7318184;19;9510;-71
2023/12/16 12:14:11;;;;;;;;;;;17.30;67.40;;;;;;7318836;19;9474;-72
2023/12/16 12:16:40;;;;;;;;;;;17.30;67.40;;;;;;7318381;19;10219;-72
2023/12/16 12:19:12;;;;;;;;;;;17.30;67.30;;;;;;7319793;19;9506;-71
2023/12/16 12:21:41;;;;;;;;;;;17.20;67.30;;;;;;7317812;19;9286;-71
2023/12/16 12:24:10;;;;;;;;;;;17.30;67.30;;;;;;7318828;19;9466;-71
2023/12/16 12:26:39;;;;;;;;;;;17.30;67.40;;;;;;7318469;19;9532;-72
2023/12/16 12:29:08;;;;;;;;;;;17.30;67.30;;;;;;7318616;19;9269;-71
2023/12/16 12:31:45;;;;;;;;;;;17.30;67.30;;;;;;7315211;19;9274;-71
2023/12/16 12:34:25;;;;;;;;;;;17.30;67.30;;;;;;7317827;19;9540;-71
2023/12/16 12:37:14;;;;;;;;;;;17.30;67.40;;;;;;7317334;19;9515;-71
2023/12/16 12:39:44;;;;;;;;;;;17.30;67.40;;;;;;7316732;19;9512;-71
2023/12/16 12:42:13;;;;;;;;;;;17.30;67.40;;;;;;7319213;19;9289;-71
2023/12/16 12:44:52;;;;;;;;;;;17.30;67.40;;;;;;7318588;19;9544;-71
2023/12/16 12:47:30;;;;;;;;;;;17.20;67.40;;;;;;7317569;19;9503;-71
2023/12/16 12:50:02;;;;;;;;;;;17.20;67.30;;;;;;7319397;19;9439;-71
2023/12/16 12:52:38;;;;;;;;;;;17.20;67.30;;;;;;7315630;19;9568;-71
2023/12/16 12:55:09;;;;;;;;;;;17.20;67.40;;;;;;7318584;19;9222;-71
2023/12/16 12:57:38;;;;;;;;;;;17.20;67.40;;;;;;7317148;19;9326;-71
2023/12/16 13:00:27;;;;;;;;;;;17.20;67.50;;;;;;7314461;19;9583;-70
2023/12/16 13:02:56;;;;;;;;;;;17.20;67.40;;;;;;7317414;19;9378;-71
2023/12/16 13:05:28;;;;;;;;;;;17.20;67.40;;;;;;7316284;19;9429;-71
2023/12/16 13:07:57;;;;;;;;;;;17.20;67.40;;;;;;7317942;19;9503;-70
2023/12/16 13:10:26;;;;;;;;;;;17.20;67.40;;;;;;7315248;19;9737;-70
2023/12/16 13:12:55;;;;;;;;;;;17.20;67.50;;;;;;7317118;19;10495;-70
2023/12/16 13:15:25;;;;;;;;;;;17.20;67.40;;;;;;7315348;19;10774;-71
2023/12/16 13:17:54;;;;;;;;;;;17.20;67.50;;;;;;7316468;19;9648;-70
2023/12/16 13:20:23;;;;;;;;;;;17.20;67.40;;;;;;7315467;19;10848;-70
2023/12/16 13:22:57;;;;;;;;;;;17.20;67.50;;;;;;7316728;19;9286;-71
2023/12/16 13:25:26;;;;;;;;;;;17.20;67.50;;;;;;7316585;19;9308;-70
2023/12/16 13:27:57;;;;;;;;;;;17.20;67.50;;;;;;7316034;19;9230;-71
2023/12/16 13:30:27;;;;;;;;;;;17.20;67.60;;;;;;7316546;19;9490;-71
2023/12/16 13:32:56;;;;;;;;;;;17.20;67.50;;;;;;7316643;19;9458;-71
2023/12/16 13:35:25;;;;;;;;;;;17.20;67.50;;;;;;7317714;19;9372;-70
2023/12/16 13:37:57;;;;;;;;;;;17.20;67.60;;;;;;7315178;19;9115;-71
2023/12/16 13:40:26;;;;;;;;;;;17.20;67.50;;;;;;7316425;19;9605;-71
2023/12/16 13:42:55;;;;;;;;;;;17.20;67.60;;;;;;7319566;19;9382;-71
2023/12/16 13:45:24;;;;;;;;;;;17.20;67.50;;;;;;7322805;19;9513;-71
2023/12/16 13:47:52;;;;;;;;;;;17.20;67.50;;;;;;7322773;19;9330;-71
2023/12/16 13:50:21;;;;;;;;;;;17.20;67.60;;;;;;7323021;19;9211;-71
2023/12/16 13:52:51;;;;;;;;;;;17.20;67.60;;;;;;7322589;19;9200;-70
2023/12/16 13:55:23;;;;;;;;;;;17.20;67.60;;;;;;7322612;19;9495;-70
2023/12/16 13:57:52;;;;;;;;;;;17.20;67.60;;;;;;7322255;19;9538;-70
2023/12/16 14:00:22;;;;;;;;;;;17.20;67.60;;;;;;7321964;19;9240;-70
2023/12/16 14:02:51;;;;;;;;;;;17.20;67.60;;;;;;7322155;19;9585;-70
2023/12/16 14:05:20;;;;;;;;;;;17.20;67.60;;;;;;7321830;19;9369;-70
2023/12/16 14:08:10;;;;;;;;;;;17.20;67.60;;;;;;7320921;19;9368;-70
2023/12/16 14:10:43;;;;;;;;;;;17.10;67.60;;;;;;7320080;19;9383;-70
2023/12/16 14:13:12;;;;;;;;;;;17.20;67.60;;;;;;7322972;19;9511;-70
2023/12/16 14:15:41;;;;;;;;;;;17.20;67.70;;;;;;7321985;19;9368;-70
2023/12/16 14:18:10;;;;;;;;;;;17.20;67.60;;;;;;7322379;19;9156;-70
2023/12/16 14:20:39;;;;;;;;;;;17.10;67.60;;;;;;7322576;19;9275;-70
2023/12/16 14:23:08;;;;;;;;;;;17.10;67.60;;;;;;7321565;19;9683;-70
2023/12/16 14:25:37;;;;;;;;;;;17.10;67.60;;;;;;7322239;19;9541;-70
2023/12/16 14:28:09;;;;;;;;;;;17.10;67.70;;;;;;7320866;19;9270;-70
2023/12/16 14:30:38;;;;;;;;;;;17.10;67.70;;;;;;7322255;19;9538;-70
2023/12/16 14:33:08;;;;;;;;;;;17.10;67.70;;;;;;7320437;19;10639;-70
2023/12/16 14:35:37;;;;;;;;;;;17.20;67.70;;;;;;7320959;19;9265;-70
2023/12/16 14:38:06;;;;;;;;;;;17.10;67.70;;;;;;7320955;19;10315;-70
2023/12/16 14:40:35;;;;;;;;;;;17.10;67.70;;;;;;7322429;19;9326;-71
2023/12/16 14:43:04;;;;;;;;;;;17.10;67.80;;;;;;7321131;19;9281;-70
2023/12/16 14:45:35;;;;;;;;;;;17.10;67.80;;;;;;7322008;19;9361;-69
2023/12/16 14:48:07;;;;;;;;;;;17.10;67.70;;;;;;7320394;19;9103;-69
2023/12/16 14:50:36;;;;;;;;;;;17.10;67.70;;;;;;7320674;19;9249;-70
2023/12/16 14:53:25;;;;;;;;;;;17.10;67.70;;;;;;7318928;19;10661;-71